sensor_id;sensor_type;location;lat;lon;timestamp;pressure;altitude;pressure_sealevel;temperature;humidity
53651;BME280;39552;45.776;15.892;2022-08-25T00:01:50;100454.84;;;20.91;100.00
53651;BME280;39552;45.776;15.892;2022-08-25T00:04:18;100454.06;;;20.98;100.00
53651;BME280;39552;45.776;15.892;2022-08-25T00:06:48;100453.03;;;20.99;100.00
53651;BME280;39552;45.776;15.892;2022-08-25T00:09:17;100446.53;;;21.00;100.00
53651;BME280;39552;45.776;15.892;2022-08-25T00:11:44;100458.09;;;21.04;100.00
53651;BME280;39552;45.776;15.892;2022-08-25T00:14:14;100453.56;;;20.85;100.00
53651;BME280;39552;45.776;15.892;2022-08-25T00:16:40;100457.78;;;21.07;100.00
53651;BME280;39552;45.776;15.892;2022-08-25T00:19:12;100454.41;;;21.13;100.00
53651;BME280;39552;45.776;15.892;2022-08-25T00:21:40;100450.47;;;20.98;100.00
53651;BME280;39552;45.776;15.892;2022-08-25T00:24:09;100446.69;;;20.99;100.00
53651;BME280;39552;45.776;15.892;2022-08-25T00:26:38;100449.69;;;21.06;100.00
53651;BME280;39552;45.776;15.892;2022-08-25T00:29:05;100435.59;;;20.91;100.00
53651;BME280;39552;45.776;15.892;2022-08-25T00:31:33;100444.00;;;20.89;100.00
53651;BME280;39552;45.776;15.892;2022-08-25T00:34:05;100437.88;;;20.95;100.00
53651;BME280;39552;45.776;15.892;2022-08-25T00:36:33;100428.88;;;20.75;100.00
53651;BME280;39552;45.776;15.892;2022-08-25T00:39:00;100436.84;;;20.78;100.00
53651;BME280;39552;45.776;15.892;2022-08-25T00:41:28;100431.47;;;20.77;100.00
53651;BME280;39552;45.776;15.892;2022-08-25T00:43:57;100429.13;;;20.82;100.00
53651;BME280;39552;45.776;15.892;2022-08-25T00:46:25;100424.19;;;20.86;100.00
53651;BME280;39552;45.776;15.892;2022-08-25T00:48:55;100421.91;;;20.81;100.00
53651;BME280;39552;45.776;15.892;2022-08-25T00:51:28;100412.69;;;20.72;100.00
53651;BME280;39552;45.776;15.892;2022-08-25T00:53:56;100416.91;;;20.67;100.00
53651;BME280;39552;45.776;15.892;2022-08-25T00:56:24;100409.78;;;20.74;100.00
53651;BME280;39552;45.776;15.892;2022-08-25T00:58:52;100406.94;;;20.66;100.00
53651;BME280;39552;45.776;15.892;2022-08-25T01:01:19;100409.69;;;20.66;100.00
53651;BME280;39552;45.776;15.892;2022-08-25T01:03:46;100405.06;;;20.84;100.00
53651;BME280;39552;45.776;15.892;2022-08-25T01:06:12;100405.25;;;20.83;100.00
53651;BME280;39552;45.776;15.892;2022-08-25T01:08:39;100408.25;;;20.89;100.00
53651;BME280;39552;45.776;15.892;2022-08-25T01:11:08;100402.28;;;20.94;100.00
53651;BME280;39552;45.776;15.892;2022-08-25T01:13:39;100402.03;;;20.87;100.00
53651;BME280;39552;45.776;15.892;2022-08-25T01:16:08;100402.56;;;20.73;100.00
53651;BME280;39552;45.776;15.892;2022-08-25T01:18:43;100397.38;;;20.70;100.00
53651;BME280;39552;45.776;15.892;2022-08-25T01:21:12;100397.28;;;20.61;100.00
53651;BME280;39552;45.776;15.892;2022-08-25T01:23:40;100400.72;;;20.64;100.00
53651;BME280;39552;45.776;15.892;2022-08-25T01:26:09;100385.41;;;20.61;100.00
53651;BME280;39552;45.776;15.892;2022-08-25T01:28:36;100392.03;;;20.58;100.00
53651;BME280;39552;45.776;15.892;2022-08-25T01:31:03;100393.50;;;20.62;100.00
53651;BME280;39552;45.776;15.892;2022-08-25T01:33:49;100383.84;;;20.49;100.00
53651;BME280;39552;45.776;15.892;2022-08-25T01:36:18;100390.31;;;20.57;100.00
53651;BME280;39552;45.776;15.892;2022-08-25T01:38:45;100395.09;;;20.55;100.00
53651;BME280;39552;45.776;15.892;2022-08-25T01:41:11;100386.34;;;20.42;100.00
53651;BME280;39552;45.776;15.892;2022-08-25T01:43:41;100380.84;;;20.42;100.00
53651;BME280;39552;45.776;15.892;2022-08-25T01:46:08;100394.69;;;20.50;100.00
53651;BME280;39552;45.776;15.892;2022-08-25T01:48:35;100387.44;;;20.49;100.00
53651;BME280;39552;45.776;15.892;2022-08-25T01:51:01;100392.00;;;20.40;100.00
53651;BME280;39552;45.776;15.892;2022-08-25T01:53:30;100393.66;;;20.51;100.00
53651;BME280;39552;45.776;15.892;2022-08-25T01:55:59;100389.47;;;20.47;100.00
53651;BME280;39552;45.776;15.892;2022-08-25T01:58:38;100385.63;;;20.40;100.00
53651;BME280;39552;45.776;15.892;2022-08-25T02:01:07;100387.44;;;20.49;100.00
53651;BME280;39552;45.776;15.892;2022-08-25T02:03:37;100367.88;;;20.34;100.00
53651;BME280;39552;45.776;15.892;2022-08-25T02:06:10;100393.56;;;20.43;100.00
53651;BME280;39552;45.776;15.892;2022-08-25T02:08:38;100392.78;;;20.51;100.00
53651;BME280;39552;45.776;15.892;2022-08-25T02:11:05;100396.53;;;20.22;100.00
53651;BME280;39552;45.776;15.892;2022-08-25T02:13:35;100388.69;;;20.37;100.00
53651;BME280;39552;45.776;15.892;2022-08-25T02:16:02;100393.38;;;20.27;100.00
53651;BME280;39552;45.776;15.892;2022-08-25T02:18:29;100404.50;;;20.25;100.00
53651;BME280;39552;45.776;15.892;2022-08-25T02:20:55;100406.59;;;20.41;100.00
53651;BME280;39552;45.776;15.892;2022-08-25T02:23:22;100402.88;;;20.32;100.00
53651;BME280;39552;45.776;15.892;2022-08-25T02:25:50;100404.59;;;20.33;100.00
53651;BME280;39552;45.776;15.892;2022-08-25T02:28:17;100400.84;;;20.34;100.00
53651;BME280;39552;45.776;15.892;2022-08-25T02:30:44;100403.34;;;20.55;100.00
53651;BME280;39552;45.776;15.892;2022-08-25T02:33:10;100404.97;;;20.48;100.00
53651;BME280;39552;45.776;15.892;2022-08-25T02:35:37;100405.41;;;20.43;100.00
53651;BME280;39552;45.776;15.892;2022-08-25T02:38:05;100402.22;;;20.48;100.00
53651;BME280;39552;45.776;15.892;2022-08-25T02:40:32;100394.16;;;20.37;100.00
53651;BME280;39552;45.776;15.892;2022-08-25T02:43:00;100396.91;;;20.37;100.00
53651;BME280;39552;45.776;15.892;2022-08-25T02:45:27;100395.75;;;20.39;100.00
53651;BME280;39552;45.776;15.892;2022-08-25T02:47:54;100397.16;;;20.43;100.00
53651;BME280;39552;45.776;15.892;2022-08-25T02:50:21;100386.16;;;20.53;100.00
53651;BME280;39552;45.776;15.892;2022-08-25T02:52:48;100380.47;;;20.55;100.00
53651;BME280;39552;45.776;15.892;2022-08-25T02:55:15;100376.16;;;20.52;100.00
53651;BME280;39552;45.776;15.892;2022-08-25T02:57:42;100364.16;;;20.53;100.00
53651;BME280;39552;45.776;15.892;2022-08-25T03:00:12;100380.94;;;20.50;100.00
53651;BME280;39552;45.776;15.892;2022-08-25T03:02:40;100371.94;;;20.58;100.00
53651;BME280;39552;45.776;15.892;2022-08-25T03:05:08;100379.31;;;20.57;100.00
53651;BME280;39552;45.776;15.892;2022-08-25T03:07:35;100359.78;;;20.60;100.00
53651;BME280;39552;45.776;15.892;2022-08-25T03:10:04;100370.91;;;20.69;100.00
53651;BME280;39552;45.776;15.892;2022-08-25T03:12:31;100362.41;;;20.52;100.00
53651;BME280;39552;45.776;15.892;2022-08-25T03:14:58;100366.00;;;20.62;100.00
53651;BME280;39552;45.776;15.892;2022-08-25T03:17:27;100364.53;;;20.68;100.00
53651;BME280;39552;45.776;15.892;2022-08-25T03:19:55;100369.78;;;20.61;100.00
53651;BME280;39552;45.776;15.892;2022-08-25T03:22:22;100371.81;;;20.59;100.00
53651;BME280;39552;45.776;15.892;2022-08-25T03:24:49;100367.44;;;20.57;100.00
53651;BME280;39552;45.776;15.892;2022-08-25T03:27:16;100367.91;;;20.52;100.00
53651;BME280;39552;45.776;15.892;2022-08-25T03:29:42;100376.56;;;20.57;100.00
53651;BME280;39552;45.776;15.892;2022-08-25T03:32:09;100376.72;;;20.56;100.00
53651;BME280;39552;45.776;15.892;2022-08-25T03:34:37;100372.56;;;20.52;100.00
53651;BME280;39552;45.776;15.892;2022-08-25T03:37:04;100382.66;;;20.61;100.00
53651;BME280;39552;45.776;15.892;2022-08-25T03:39:30;100381.63;;;20.62;100.00
53651;BME280;39552;45.776;15.892;2022-08-25T03:41:57;100381.56;;;20.72;100.00
53651;BME280;39552;45.776;15.892;2022-08-25T03:44:24;100370.50;;;20.64;100.00
53651;BME280;39552;45.776;15.892;2022-08-25T03:46:51;100375.50;;;20.68;100.00
53651;BME280;39552;45.776;15.892;2022-08-25T03:49:19;100378.19;;;20.50;100.00
53651;BME280;39552;45.776;15.892;2022-08-25T03:51:49;100373.47;;;20.42;100.00
53651;BME280;39552;45.776;15.892;2022-08-25T03:54:19;100374.13;;;20.54;100.00
53651;BME280;39552;45.776;15.892;2022-08-25T03:56:46;100369.25;;;20.48;100.00
53651;BME280;39552;45.776;15.892;2022-08-25T03:59:12;100370.88;;;20.41;100.00
53651;BME280;39552;45.776;15.892;2022-08-25T04:01:42;100368.13;;;20.41;100.00
53651;BME280;39552;45.776;15.892;2022-08-25T04:04:10;100372.47;;;20.34;100.00
53651;BME280;39552;45.776;15.892;2022-08-25T04:06:37;100368.97;;;20.41;100.00
53651;BME280;39552;45.776;15.892;2022-08-25T04:09:06;100368.94;;;20.61;100.00
53651;BME280;39552;45.776;15.892;2022-08-25T04:11:33;100374.97;;;20.55;100.00
53651;BME280;39552;45.776;15.892;2022-08-25T04:14:00;100359.06;;;20.58;100.00
53651;BME280;39552;45.776;15.892;2022-08-25T04:16:29;100364.75;;;20.47;100.00
53651;BME280;39552;45.776;15.892;2022-08-25T04:18:58;100367.88;;;20.62;100.00
53651;BME280;39552;45.776;15.892;2022-08-25T04:21:26;100349.13;;;20.75;100.00
53651;BME280;39552;45.776;15.892;2022-08-25T04:23:54;100350.63;;;20.70;100.00
53651;BME280;39552;45.776;15.892;2022-08-25T04:26:24;100359.91;;;20.59;100.00
53651;BME280;39552;45.776;15.892;2022-08-25T04:28:52;100360.81;;;20.59;100.00
53651;BME280;39552;45.776;15.892;2022-08-25T04:31:20;100358.63;;;20.63;100.00
53651;BME280;39552;45.776;15.892;2022-08-25T04:33:48;100364.38;;;20.70;100.00
53651;BME280;39552;45.776;15.892;2022-08-25T04:36:16;100369.19;;;20.58;100.00
53651;BME280;39552;45.776;15.892;2022-08-25T04:38:45;100355.75;;;20.55;100.00
53651;BME280;39552;45.776;15.892;2022-08-25T04:41:14;100369.34;;;20.56;100.00
53651;BME280;39552;45.776;15.892;2022-08-25T04:43:42;100369.78;;;20.61;100.00
53651;BME280;39552;45.776;15.892;2022-08-25T04:46:12;100364.28;;;20.61;100.00
53651;BME280;39552;45.776;15.892;2022-08-25T04:48:46;100375.28;;;20.61;100.00
53651;BME280;39552;45.776;15.892;2022-08-25T04:51:14;100362.84;;;20.57;100.00
53651;BME280;39552;45.776;15.892;2022-08-25T04:53:41;100367.63;;;20.83;100.00
53651;BME280;39552;45.776;15.892;2022-08-25T04:56:10;100363.59;;;20.77;100.00
53651;BME280;39552;45.776;15.892;2022-08-25T04:58:37;100366.19;;;20.79;100.00
53651;BME280;39552;45.776;15.892;2022-08-25T05:01:08;100370.56;;;20.72;100.00
53651;BME280;39552;45.776;15.892;2022-08-25T05:03:35;100370.78;;;20.88;100.00
53651;BME280;39552;45.776;15.892;2022-08-25T05:06:02;100366.69;;;20.92;100.00
53651;BME280;39552;45.776;15.892;2022-08-25T05:08:30;100375.88;;;20.83;100.00
53651;BME280;39552;45.776;15.892;2022-08-25T05:10:57;100383.19;;;20.92;100.00
53651;BME280;39552;45.776;15.892;2022-08-25T05:13:24;100378.06;;;20.97;100.00
53651;BME280;39552;45.776;15.892;2022-08-25T05:15:53;100372.56;;;20.97;100.00
53651;BME280;39552;45.776;15.892;2022-08-25T05:18:22;100375.66;;;20.94;100.00
53651;BME280;39552;45.776;15.892;2022-08-25T05:20:50;100374.00;;;21.01;100.00
53651;BME280;39552;45.776;15.892;2022-08-25T05:23:18;100379.25;;;21.13;100.00
53651;BME280;39552;45.776;15.892;2022-08-25T05:25:45;100371.41;;;21.18;100.00
53651;BME280;39552;45.776;15.892;2022-08-25T05:28:11;100362.13;;;21.19;100.00
53651;BME280;39552;45.776;15.892;2022-08-25T05:30:39;100371.81;;;21.23;100.00
53651;BME280;39552;45.776;15.892;2022-08-25T05:33:06;100368.06;;;21.32;100.00
53651;BME280;39552;45.776;15.892;2022-08-25T05:35:35;100369.19;;;21.39;100.00
53651;BME280;39552;45.776;15.892;2022-08-25T05:38:02;100366.66;;;21.28;100.00
53651;BME280;39552;45.776;15.892;2022-08-25T05:40:29;100370.91;;;21.23;100.00
53651;BME280;39552;45.776;15.892;2022-08-25T05:42:56;100366.44;;;21.21;100.00
53651;BME280;39552;45.776;15.892;2022-08-25T05:45:24;100375.97;;;21.27;100.00
53651;BME280;39552;45.776;15.892;2022-08-25T05:47:51;100373.38;;;21.44;100.00
53651;BME280;39552;45.776;15.892;2022-08-25T05:50:18;100371.06;;;21.39;100.00
53651;BME280;39552;45.776;15.892;2022-08-25T05:52:46;100368.56;;;21.46;100.00
53651;BME280;39552;45.776;15.892;2022-08-25T05:55:12;100378.72;;;21.45;100.00
53651;BME280;39552;45.776;15.892;2022-08-25T05:57:39;100373.47;;;21.52;100.00
53651;BME280;39552;45.776;15.892;2022-08-25T06:00:07;100381.63;;;21.62;100.00
53651;BME280;39552;45.776;15.892;2022-08-25T06:02:36;100373.19;;;21.63;100.00
53651;BME280;39552;45.776;15.892;2022-08-25T06:05:03;100382.03;;;21.49;100.00
53651;BME280;39552;45.776;15.892;2022-08-25T06:07:30;100379.88;;;21.25;100.00
53651;BME280;39552;45.776;15.892;2022-08-25T06:09:58;100377.78;;;21.54;100.00
53651;BME280;39552;45.776;15.892;2022-08-25T06:12:25;100379.38;;;21.65;100.00
53651;BME280;39552;45.776;15.892;2022-08-25T06:14:51;100378.41;;;21.48;100.00
53651;BME280;39552;45.776;15.892;2022-08-25T06:17:18;100383.38;;;21.45;100.00
53651;BME280;39552;45.776;15.892;2022-08-25T06:19:45;100380.75;;;21.43;100.00
53651;BME280;39552;45.776;15.892;2022-08-25T06:22:11;100381.31;;;21.47;100.00
53651;BME280;39552;45.776;15.892;2022-08-25T06:24:38;100387.94;;;21.54;100.00
53651;BME280;39552;45.776;15.892;2022-08-25T06:27:06;100388.09;;;21.52;100.00
53651;BME280;39552;45.776;15.892;2022-08-25T06:29:33;100387.94;;;21.54;100.00
53651;BME280;39552;45.776;15.892;2022-08-25T06:32:00;100382.31;;;21.64;100.00
53651;BME280;39552;45.776;15.892;2022-08-25T06:34:27;100386.09;;;21.63;100.00
53651;BME280;39552;45.776;15.892;2022-08-25T06:36:53;100389.41;;;21.66;100.00
53651;BME280;39552;45.776;15.892;2022-08-25T06:39:21;100387.09;;;21.79;100.00
53651;BME280;39552;45.776;15.892;2022-08-25T06:41:50;100395.25;;;21.89;100.00
53651;BME280;39552;45.776;15.892;2022-08-25T06:44:18;100385.34;;;22.05;100.00
53651;BME280;39552;45.776;15.892;2022-08-25T06:46:45;100390.31;;;22.01;100.00
53651;BME280;39552;45.776;15.892;2022-08-25T06:49:12;100392.50;;;21.89;100.00
53651;BME280;39552;45.776;15.892;2022-08-25T06:51:39;100385.66;;;22.02;100.00
53651;BME280;39552;45.776;15.892;2022-08-25T06:54:06;100382.63;;;22.13;100.00
53651;BME280;39552;45.776;15.892;2022-08-25T06:56:33;100387.59;;;22.09;100.00
53651;BME280;39552;45.776;15.892;2022-08-25T06:59:00;100382.47;;;22.14;100.00
53651;BME280;39552;45.776;15.892;2022-08-25T07:01:28;100382.84;;;22.46;100.00
53651;BME280;39552;45.776;15.892;2022-08-25T07:03:58;100365.28;;;22.47;100.00
53651;BME280;39552;45.776;15.892;2022-08-25T07:06:27;100373.25;;;22.58;100.00
53651;BME280;39552;45.776;15.892;2022-08-25T07:08:54;100378.88;;;22.48;100.00
53651;BME280;39552;45.776;15.892;2022-08-25T07:11:21;100370.09;;;22.45;100.00
53651;BME280;39552;45.776;15.892;2022-08-25T07:13:49;100373.13;;;22.68;100.00
53651;BME280;39552;45.776;15.892;2022-08-25T07:16:17;100367.63;;;22.84;100.00
53651;BME280;39552;45.776;15.892;2022-08-25T07:18:47;100373.00;;;23.02;100.00
53651;BME280;39552;45.776;15.892;2022-08-25T07:21:14;100373.94;;;23.19;100.00
53651;BME280;39552;45.776;15.892;2022-08-25T07:23:41;100376.53;;;23.29;100.00
53651;BME280;39552;45.776;15.892;2022-08-25T07:26:09;100368.06;;;23.39;100.00
53651;BME280;39552;45.776;15.892;2022-08-25T07:28:56;100370.34;;;23.43;100.00
53651;BME280;39552;45.776;15.892;2022-08-25T07:31:24;100363.78;;;23.36;100.00
53651;BME280;39552;45.776;15.892;2022-08-25T07:33:56;100368.41;;;23.27;100.00
53651;BME280;39552;45.776;15.892;2022-08-25T07:36:25;100366.88;;;23.25;100.00
53651;BME280;39552;45.776;15.892;2022-08-25T07:38:53;100369.63;;;23.16;100.00
53651;BME280;39552;45.776;15.892;2022-08-25T07:41:20;100374.28;;;23.24;100.00
53651;BME280;39552;45.776;15.892;2022-08-25T07:43:48;100372.75;;;23.30;100.00
53651;BME280;39552;45.776;15.892;2022-08-25T07:46:15;100374.44;;;23.39;100.00
53651;BME280;39552;45.776;15.892;2022-08-25T07:48:42;100367.75;;;23.33;100.00
53651;BME280;39552;45.776;15.892;2022-08-25T07:51:20;100373.78;;;23.53;100.00
53651;BME280;39552;45.776;15.892;2022-08-25T07:53:48;100373.25;;;23.58;100.00
53651;BME280;39552;45.776;15.892;2022-08-25T07:56:15;100373.94;;;23.68;100.00
53651;BME280;39552;45.776;15.892;2022-08-25T07:58:43;100366.50;;;23.77;100.00
53651;BME280;39552;45.776;15.892;2022-08-25T08:01:12;100373.59;;;23.88;100.00
53651;BME280;39552;45.776;15.892;2022-08-25T08:03:39;100368.41;;;24.01;100.00
53651;BME280;39552;45.776;15.892;2022-08-25T08:06:18;100357.16;;;24.11;100.00
53651;BME280;39552;45.776;15.892;2022-08-25T08:08:49;100359.88;;;24.19;100.00
53651;BME280;39552;45.776;15.892;2022-08-25T08:11:22;100365.38;;;24.27;100.00
53651;BME280;39552;45.776;15.892;2022-08-25T08:13:50;100362.78;;;24.34;100.00
53651;BME280;39552;45.776;15.892;2022-08-25T08:16:19;100358.09;;;24.34;100.00
53651;BME280;39552;45.776;15.892;2022-08-25T08:18:46;100361.03;;;24.33;100.00
53651;BME280;39552;45.776;15.892;2022-08-25T08:21:15;100341.50;;;24.34;100.00
53651;BME280;39552;45.776;15.892;2022-08-25T08:23:47;100345.06;;;24.60;100.00
53651;BME280;39552;45.776;15.892;2022-08-25T08:26:14;100338.69;;;24.43;100.00
53651;BME280;39552;45.776;15.892;2022-08-25T08:28:41;100345.72;;;24.22;100.00
53651;BME280;39552;45.776;15.892;2022-08-25T08:31:08;100342.84;;;23.99;100.00
53651;BME280;39552;45.776;15.892;2022-08-25T08:33:36;100340.06;;;24.07;100.00
53651;BME280;39552;45.776;15.892;2022-08-25T08:36:09;100341.28;;;24.44;100.00
53651;BME280;39552;45.776;15.892;2022-08-25T08:38:37;100322.75;;;24.53;100.00
53651;BME280;39552;45.776;15.892;2022-08-25T08:41:16;100332.22;;;24.67;100.00
53651;BME280;39552;45.776;15.892;2022-08-25T08:43:53;100322.50;;;24.71;100.00
53651;BME280;39552;45.776;15.892;2022-08-25T08:46:22;100338.94;;;24.72;100.00
53651;BME280;39552;45.776;15.892;2022-08-25T08:48:59;100327.38;;;24.69;100.00
53651;BME280;39552;45.776;15.892;2022-08-25T08:51:31;100321.69;;;24.62;100.00
53651;BME280;39552;45.776;15.892;2022-08-25T08:54:04;100318.75;;;24.64;100.00
53651;BME280;39552;45.776;15.892;2022-08-25T08:56:44;100321.16;;;24.67;100.00
53651;BME280;39552;45.776;15.892;2022-08-25T08:59:16;100315.81;;;24.65;100.00
53651;BME280;39552;45.776;15.892;2022-08-25T09:01:47;100308.34;;;24.66;100.00
53651;BME280;39552;45.776;15.892;2022-08-25T09:04:28;100319.56;;;24.72;100.00
53651;BME280;39552;45.776;15.892;2022-08-25T09:06:58;100317.34;;;24.68;100.00
53651;BME280;39552;45.776;15.892;2022-08-25T09:09:29;100314.47;;;24.84;100.00
53651;BME280;39552;45.776;15.892;2022-08-25T09:12:09;100314.75;;;24.89;100.00
53651;BME280;39552;45.776;15.892;2022-08-25T09:14:49;100313.53;;;24.69;100.00
53651;BME280;39552;45.776;15.892;2022-08-25T09:17:41;100316.56;;;24.82;100.00
53651;BME280;39552;45.776;15.892;2022-08-25T09:20:36;100318.16;;;24.77;100.00
53651;BME280;39552;45.776;15.892;2022-08-25T09:23:15;100295.81;;;24.47;100.00
53651;BME280;39552;45.776;15.892;2022-08-25T09:25:52;100305.97;;;24.63;100.00
53651;BME280;39552;45.776;15.892;2022-08-25T09:28:31;100307.19;;;24.83;100.00
53651;BME280;39552;45.776;15.892;2022-08-25T09:31:01;100299.22;;;25.11;100.00
53651;BME280;39552;45.776;15.892;2022-08-25T09:33:31;100300.81;;;25.06;99.48
53651;BME280;39552;45.776;15.892;2022-08-25T09:36:01;100301.25;;;24.95;98.70
53651;BME280;39552;45.776;15.892;2022-08-25T09:38:32;100299.69;;;25.23;100.00
53651;BME280;39552;45.776;15.892;2022-08-25T09:40:59;100290.78;;;25.28;99.00
53651;BME280;39552;45.776;15.892;2022-08-25T09:43:34;100288.25;;;24.95;98.01
53651;BME280;39552;45.776;15.892;2022-08-25T09:46:08;100291.66;;;25.05;99.00
53651;BME280;39552;45.776;15.892;2022-08-25T09:48:42;100285.06;;;25.06;96.97
53651;BME280;39552;45.776;15.892;2022-08-25T09:51:17;100275.84;;;25.14;95.77
53651;BME280;39552;45.776;15.892;2022-08-25T09:53:50;100272.75;;;25.09;94.87
53651;BME280;39552;45.776;15.892;2022-08-25T09:56:20;100257.38;;;25.29;95.88
53651;BME280;39552;45.776;15.892;2022-08-25T09:58:49;100254.03;;;25.11;94.42
53651;BME280;39552;45.776;15.892;2022-08-25T10:01:17;100252.94;;;25.20;95.91
53651;BME280;39552;45.776;15.892;2022-08-25T10:03:59;100249.56;;;25.33;95.27
53651;BME280;39552;45.776;15.892;2022-08-25T10:06:29;100251.28;;;25.34;94.58
53651;BME280;39552;45.776;15.892;2022-08-25T10:09:02;100246.16;;;25.46;94.73
53651;BME280;39552;45.776;15.892;2022-08-25T10:11:39;100245.75;;;25.11;93.98
53651;BME280;39552;45.776;15.892;2022-08-25T10:14:16;100244.34;;;25.15;92.39
53651;BME280;39552;45.776;15.892;2022-08-25T10:16:44;100246.22;;;25.23;95.24
53651;BME280;39552;45.776;15.892;2022-08-25T10:19:13;100236.09;;;25.07;96.16
53651;BME280;39552;45.776;15.892;2022-08-25T10:22:06;100247.66;;;24.87;97.37
53651;BME280;39552;45.776;15.892;2022-08-25T10:24:33;100240.34;;;24.95;98.55
53651;BME280;39552;45.776;15.892;2022-08-25T10:27:07;100222.72;;;24.96;98.25
53651;BME280;39552;45.776;15.892;2022-08-25T10:30:06;100234.06;;;25.01;97.41
53651;BME280;39552;45.776;15.892;2022-08-25T10:32:54;100228.25;;;24.96;97.16
53651;BME280;39552;45.776;15.892;2022-08-25T10:35:28;100209.81;;;24.88;95.73
53651;BME280;39552;45.776;15.892;2022-08-25T10:38:04;100227.41;;;25.10;95.36
53651;BME280;39552;45.776;15.892;2022-08-25T10:40:41;100224.91;;;25.23;98.01
53651;BME280;39552;45.776;15.892;2022-08-25T10:43:21;100209.84;;;25.41;94.00
53651;BME280;39552;45.776;15.892;2022-08-25T10:46:01;100208.13;;;25.40;93.74
53651;BME280;39552;45.776;15.892;2022-08-25T10:48:50;100203.84;;;25.52;93.08
53651;BME280;39552;45.776;15.892;2022-08-25T10:51:37;100198.38;;;25.44;92.00
53651;BME280;39552;45.776;15.892;2022-08-25T10:54:13;100188.91;;;25.53;90.74
53651;BME280;39552;45.776;15.892;2022-08-25T10:56:51;100181.88;;;25.65;91.71
53651;BME280;39552;45.776;15.892;2022-08-25T10:59:42;100189.59;;;25.70;88.60
53651;BME280;39552;45.776;15.892;2022-08-25T11:05:41;100189.88;;;25.60;86.80
53651;BME280;39552;45.776;15.892;2022-08-25T11:08:14;100177.38;;;25.64;88.16
53651;BME280;39552;45.776;15.892;2022-08-25T11:10:46;100176.28;;;25.80;87.07
53651;BME280;39552;45.776;15.892;2022-08-25T11:13:21;100163.53;;;25.94;84.91
53651;BME280;39552;45.776;15.892;2022-08-25T11:15:53;100160.50;;;26.11;85.24
53651;BME280;39552;45.776;15.892;2022-08-25T11:18:46;100160.94;;;26.51;82.80
53651;BME280;39552;45.776;15.892;2022-08-25T11:21:22;100156.47;;;26.71;82.23
53651;BME280;39552;45.776;15.892;2022-08-25T11:23:56;100156.09;;;27.02;77.76
53651;BME280;39552;45.776;15.892;2022-08-25T11:26:27;100158.22;;;27.29;76.18
53651;BME280;39552;45.776;15.892;2022-08-25T11:29:04;100151.69;;;27.15;73.02
53651;BME280;39552;45.776;15.892;2022-08-25T11:31:39;100150.44;;;27.17;72.68
53651;BME280;39552;45.776;15.892;2022-08-25T11:34:08;100152.22;;;27.25;73.70
53651;BME280;39552;45.776;15.892;2022-08-25T11:36:38;100148.97;;;27.50;73.74
53651;BME280;39552;45.776;15.892;2022-08-25T11:39:15;100137.47;;;27.59;74.19
53651;BME280;39552;45.776;15.892;2022-08-25T11:41:56;100140.25;;;27.59;73.47
53651;BME280;39552;45.776;15.892;2022-08-25T11:44:46;100144.38;;;27.70;72.02
53651;BME280;39552;45.776;15.892;2022-08-25T11:47:32;100139.78;;;27.91;68.95
53651;BME280;39552;45.776;15.892;2022-08-25T11:50:06;100132.63;;;27.81;67.41
53651;BME280;39552;45.776;15.892;2022-08-25T11:52:43;100142.25;;;27.79;67.55
53651;BME280;39552;45.776;15.892;2022-08-25T11:55:12;100134.50;;;28.09;68.31
53651;BME280;39552;45.776;15.892;2022-08-25T11:57:41;100145.88;;;28.21;68.51
53651;BME280;39552;45.776;15.892;2022-08-25T12:00:11;100131.75;;;28.29;65.93
53651;BME280;39552;45.776;15.892;2022-08-25T12:02:41;100138.78;;;28.12;67.01
53651;BME280;39552;45.776;15.892;2022-08-25T12:05:47;100111.66;;;28.20;65.71
53651;BME280;39552;45.776;15.892;2022-08-25T12:08:03;100136.84;;;28.06;63.00
53651;BME280;39552;45.776;15.892;2022-08-25T12:10:53;100137.28;;;28.16;64.55
53651;BME280;39552;45.776;15.892;2022-08-25T12:13:36;100128.84;;;28.57;67.11
53651;BME280;39552;45.776;15.892;2022-08-25T12:16:04;100126.88;;;28.44;65.42
53651;BME280;39552;45.776;15.892;2022-08-25T12:18:43;100112.28;;;28.22;66.84
53651;BME280;39552;45.776;15.892;2022-08-25T12:21:14;100138.13;;;28.10;66.81
53651;BME280;39552;45.776;15.892;2022-08-25T12:24:06;100125.53;;;28.07;67.71
53651;BME280;39552;45.776;15.892;2022-08-25T12:26:41;100126.13;;;28.02;67.79
53651;BME280;39552;45.776;15.892;2022-08-25T12:29:15;100122.81;;;27.79;63.28
53651;BME280;39552;45.776;15.892;2022-08-25T12:32:17;100123.78;;;27.58;65.12
53651;BME280;39552;45.776;15.892;2022-08-25T12:35:12;100130.88;;;27.60;66.30
53651;BME280;39552;45.776;15.892;2022-08-25T12:37:53;100136.16;;;27.55;67.24
53651;BME280;39552;45.776;15.892;2022-08-25T12:40:26;100135.72;;;27.52;67.19
53651;BME280;39552;45.776;15.892;2022-08-25T12:43:07;100135.44;;;27.40;67.61
53651;BME280;39552;45.776;15.892;2022-08-25T12:45:37;100135.44;;;27.40;68.54
53651;BME280;39552;45.776;15.892;2022-08-25T12:48:52;100131.75;;;27.33;68.99
53651;BME280;39552;45.776;15.892;2022-08-25T12:51:22;100120.13;;;27.22;70.57
53651;BME280;39552;45.776;15.892;2022-08-25T12:53:51;100119.34;;;27.29;69.58
53651;BME280;39552;45.776;15.892;2022-08-25T12:56:25;100117.88;;;27.33;69.54